sensor_id;sensor_type;location;lat;lon;timestamp;pressure;altitude;pressure_sealevel;temperature;humidity
62544;BME280;48597;49.030;1.822;2024-03-08T00:02:24;100244.13;;;20.76;39.27
62544;BME280;48597;49.030;1.822;2024-03-08T00:04:49;100234.75;;;20.75;39.11
62544;BME280;48597;49.030;1.822;2024-03-08T00:07:15;100236.34;;;20.76;39.12
62544;BME280;48597;49.030;1.822;2024-03-08T00:09:40;100227.75;;;20.76;39.04
62544;BME280;48597;49.030;1.822;2024-03-08T00:12:06;100223.63;;;20.77;39.13
62544;BME280;48597;49.030;1.822;2024-03-08T00:14:31;100226.47;;;20.77;39.01
62544;BME280;48597;49.030;1.822;2024-03-08T00:16:57;100228.03;;;20.78;39.17
62544;BME280;48597;49.030;1.822;2024-03-08T00:19:22;100221.50;;;20.78;39.15
62544;BME280;48597;49.030;1.822;2024-03-08T00:21:47;100212.91;;;20.78;39.04
62544;BME280;48597;49.030;1.822;2024-03-08T00:24:13;100212.44;;;20.79;39.02
62544;BME280;48597;49.030;1.822;2024-03-08T00:26:38;100217.38;;;20.79;38.73
62544;BME280;48597;49.030;1.822;2024-03-08T00:29:03;100210.38;;;20.80;38.79
62544;BME280;48597;49.030;1.822;2024-03-08T00:31:29;100207.53;;;20.80;38.83
62544;BME280;48597;49.030;1.822;2024-03-08T00:33:56;100200.19;;;20.79;38.86
62544;BME280;48597;49.030;1.822;2024-03-08T00:36:22;100197.34;;;20.79;38.72
62544;BME280;48597;49.030;1.822;2024-03-08T00:38:47;100203.06;;;20.79;38.80
62544;BME280;48597;49.030;1.822;2024-03-08T00:41:13;100202.25;;;20.78;38.70
62544;BME280;48597;49.030;1.822;2024-03-08T00:43:38;100199.41;;;20.78;38.74
62544;BME280;48597;49.030;1.822;2024-03-08T00:46:04;100191.59;;;20.79;38.78
62544;BME280;48597;49.030;1.822;2024-03-08T00:48:29;100192.09;;;20.77;38.80
62544;BME280;48597;49.030;1.822;2024-03-08T00:50:56;100184.28;;;20.78;38.80
62544;BME280;48597;49.030;1.822;2024-03-08T00:53:21;100178.56;;;20.78;38.37
62544;BME280;48597;49.030;1.822;2024-03-08T00:55:46;100173.63;;;20.78;38.81
62544;BME280;48597;49.030;1.822;2024-03-08T00:58:13;100168.69;;;20.79;38.84
62544;BME280;48597;49.030;1.822;2024-03-08T01:00:39;100162.16;;;20.78;38.78
62544;BME280;48597;49.030;1.822;2024-03-08T01:03:04;100165.03;;;20.78;38.65
62544;BME280;48597;49.030;1.822;2024-03-08T01:05:30;100153.56;;;20.78;38.72
62544;BME280;48597;49.030;1.822;2024-03-08T01:07:55;100147.84;;;20.78;38.71
62544;BME280;48597;49.030;1.822;2024-03-08T01:10:21;100134.81;;;20.77;38.72
62544;BME280;48597;49.030;1.822;2024-03-08T01:12:46;100131.97;;;20.77;38.68
62544;BME280;48597;49.030;1.822;2024-03-08T01:15:12;100127.00;;;20.78;38.71
62544;BME280;48597;49.030;1.822;2024-03-08T01:17:37;100126.22;;;20.77;38.93
62544;BME280;48597;49.030;1.822;2024-03-08T01:20:04;100113.19;;;20.76;38.70
62544;BME280;48597;49.030;1.822;2024-03-08T01:22:30;100111.91;;;20.77;38.70
62544;BME280;48597;49.030;1.822;2024-03-08T01:24:56;100106.19;;;20.77;38.63
62544;BME280;48597;49.030;1.822;2024-03-08T01:27:22;100106.19;;;20.77;38.59
62544;BME280;48597;49.030;1.822;2024-03-08T01:29:47;100100.44;;;20.77;38.56
62544;BME280;48597;49.030;1.822;2024-03-08T01:32:13;100094.72;;;20.77;38.60
62544;BME280;48597;49.030;1.822;2024-03-08T01:34:38;100091.53;;;20.75;38.77
62544;BME280;48597;49.030;1.822;2024-03-08T01:37:04;100090.28;;;20.76;38.38
62544;BME280;48597;49.030;1.822;2024-03-08T01:39:29;100084.53;;;20.76;38.60
62544;BME280;48597;49.030;1.822;2024-03-08T01:41:55;100080.88;;;20.76;38.60
62544;BME280;48597;49.030;1.822;2024-03-08T01:44:20;100079.28;;;20.75;38.51
62544;BME280;48597;49.030;1.822;2024-03-08T01:46:46;100078.81;;;20.76;38.31
62544;BME280;48597;49.030;1.822;2024-03-08T01:49:13;100063.69;;;20.76;38.39
62544;BME280;48597;49.030;1.822;2024-03-08T01:51:40;100068.63;;;20.75;38.38
62544;BME280;48597;49.030;1.822;2024-03-08T01:54:07;100057.97;;;20.76;38.31
62544;BME280;48597;49.030;1.822;2024-03-08T01:56:36;100067.34;;;20.76;38.06
62544;BME280;48597;49.030;1.822;2024-03-08T01:59:03;100059.25;;;20.75;38.31
62544;BME280;48597;49.030;1.822;2024-03-08T02:01:29;100067.84;;;20.75;38.34
62544;BME280;48597;49.030;1.822;2024-03-08T02:03:55;100053.97;;;20.73;38.29
62544;BME280;48597;49.030;1.822;2024-03-08T02:06:20;100051.91;;;20.74;38.40
62544;BME280;48597;49.030;1.822;2024-03-08T02:08:46;100048.25;;;20.73;38.34
62544;BME280;48597;49.030;1.822;2024-03-08T02:11:12;100045.38;;;20.73;38.41
62544;BME280;48597;49.030;1.822;2024-03-08T02:13:38;100035.22;;;20.72;38.36
62544;BME280;48597;49.030;1.822;2024-03-08T02:16:04;100031.53;;;20.72;38.35
62544;BME280;48597;49.030;1.822;2024-03-08T02:18:30;100025.03;;;20.71;38.21
62544;BME280;48597;49.030;1.822;2024-03-08T02:20:58;100027.88;;;20.71;38.25
62544;BME280;48597;49.030;1.822;2024-03-08T02:23:24;100021.34;;;20.71;38.25
62544;BME280;48597;49.030;1.822;2024-03-08T02:25:51;100026.28;;;20.70;38.28
62544;BME280;48597;49.030;1.822;2024-03-08T02:28:17;100022.63;;;20.69;38.04
62544;BME280;48597;49.030;1.822;2024-03-08T02:30:49;100014.03;;;20.69;38.31
62544;BME280;48597;49.030;1.822;2024-03-08T02:33:17;100009.59;;;20.68;38.26
62544;BME280;48597;49.030;1.822;2024-03-08T02:35:45;100012.91;;;20.67;38.31
62544;BME280;48597;49.030;1.822;2024-03-08T02:38:15;100012.91;;;20.67;38.19
62544;BME280;48597;49.030;1.822;2024-03-08T02:44:03;99998.28;;;20.65;38.23
62544;BME280;48597;49.030;1.822;2024-03-08T02:46:30;99989.69;;;20.65;38.24
62544;BME280;48597;49.030;1.822;2024-03-08T02:48:56;99981.09;;;20.65;38.04
62544;BME280;48597;49.030;1.822;2024-03-08T02:51:21;99970.16;;;20.63;38.09
62544;BME280;48597;49.030;1.822;2024-03-08T02:53:46;99962.34;;;20.64;37.97
62544;BME280;48597;49.030;1.822;2024-03-08T02:56:14;99947.25;;;20.63;37.97
62544;BME280;48597;49.030;1.822;2024-03-08T02:58:42;99948.50;;;20.62;37.96
62544;BME280;48597;49.030;1.822;2024-03-08T03:01:08;99940.41;;;20.61;37.92
62544;BME280;48597;49.030;1.822;2024-03-08T03:03:33;99937.53;;;20.61;37.99
62544;BME280;48597;49.030;1.822;2024-03-08T03:05:58;99931.00;;;20.60;37.94
62544;BME280;48597;49.030;1.822;2024-03-08T03:08:24;99931.50;;;20.59;37.95
62544;BME280;48597;49.030;1.822;2024-03-08T03:10:49;99922.91;;;20.59;37.75
62544;BME280;48597;49.030;1.822;2024-03-08T03:13:14;99917.19;;;20.59;37.65
62544;BME280;48597;49.030;1.822;2024-03-08T03:15:40;99907.78;;;20.58;37.50
62544;BME280;48597;49.030;1.822;2024-03-08T03:18:08;99904.13;;;20.58;37.51
62544;BME280;48597;49.030;1.822;2024-03-08T03:20:34;99895.22;;;20.56;37.60
62544;BME280;48597;49.030;1.822;2024-03-08T03:23:05;99902.22;;;20.55;37.52
62544;BME280;48597;49.030;1.822;2024-03-08T03:25:33;99905.88;;;20.55;37.61
62544;BME280;48597;49.030;1.822;2024-03-08T03:28:00;99901.41;;;20.54;37.45
62544;BME280;48597;49.030;1.822;2024-03-08T03:30:26;99902.69;;;20.53;37.42
62544;BME280;48597;49.030;1.822;2024-03-08T03:32:52;99899.03;;;20.53;37.59
62544;BME280;48597;49.030;1.822;2024-03-08T03:35:18;99891.72;;;20.52;37.31
62544;BME280;48597;49.030;1.822;2024-03-08T03:37:45;99888.56;;;20.50;37.51
62544;BME280;48597;49.030;1.822;2024-03-08T03:40:27;99882.84;;;20.50;37.26
62544;BME280;48597;49.030;1.822;2024-03-08T03:42:52;99884.91;;;20.49;36.91
62544;BME280;48597;49.030;1.822;2024-03-08T03:45:17;99879.66;;;20.48;36.93
62544;BME280;48597;49.030;1.822;2024-03-08T03:47:45;99892.69;;;20.49;37.24
62544;BME280;48597;49.030;1.822;2024-03-08T03:50:10;99888.25;;;20.48;37.17
62544;BME280;48597;49.030;1.822;2024-03-08T03:52:36;99885.84;;;20.46;37.33
62544;BME280;48597;49.030;1.822;2024-03-08T03:55:01;99887.91;;;20.46;37.25
62544;BME280;48597;49.030;1.822;2024-03-08T03:57:29;99880.94;;;20.47;37.12
62544;BME280;48597;49.030;1.822;2024-03-08T03:59:55;99879.34;;;20.46;37.14
62544;BME280;48597;49.030;1.822;2024-03-08T04:02:20;99882.66;;;20.44;37.31
62544;BME280;48597;49.030;1.822;2024-03-08T04:04:47;99887.59;;;20.44;37.34
62544;BME280;48597;49.030;1.822;2024-03-08T04:07:13;99887.59;;;20.44;37.33
62544;BME280;48597;49.030;1.822;2024-03-08T04:09:38;99888.88;;;20.43;37.42
62544;BME280;48597;49.030;1.822;2024-03-08T04:12:04;99898.25;;;20.43;37.59
62544;BME280;48597;49.030;1.822;2024-03-08T04:14:29;99888.88;;;20.43;37.65
62544;BME280;48597;49.030;1.822;2024-03-08T04:16:55;99890.16;;;20.42;37.69
62544;BME280;48597;49.030;1.822;2024-03-08T04:19:20;99888.56;;;20.41;37.70
62544;BME280;48597;49.030;1.822;2024-03-08T04:21:46;99884.09;;;20.40;37.78
62544;BME280;48597;49.030;1.822;2024-03-08T04:24:12;99880.44;;;20.39;37.88
62544;BME280;48597;49.030;1.822;2024-03-08T04:26:37;99882.50;;;20.39;37.72
62544;BME280;48597;49.030;1.822;2024-03-08T04:29:03;99878.09;;;20.38;37.91
62544;BME280;48597;49.030;1.822;2024-03-08T04:31:28;99874.44;;;20.37;37.81
62544;BME280;48597;49.030;1.822;2024-03-08T04:33:56;99861.38;;;20.36;37.84
62544;BME280;48597;49.030;1.822;2024-03-08T04:36:21;99858.53;;;20.36;37.81
62544;BME280;48597;49.030;1.822;2024-03-08T04:38:47;99863.44;;;20.36;37.78
62544;BME280;48597;49.030;1.822;2024-03-08T04:41:12;99860.25;;;20.33;38.00
62544;BME280;48597;49.030;1.822;2024-03-08T04:43:38;99862.31;;;20.33;37.92
62544;BME280;48597;49.030;1.822;2024-03-08T04:46:04;99865.16;;;20.33;37.96
62544;BME280;48597;49.030;1.822;2024-03-08T04:48:31;99863.56;;;20.32;38.10
62544;BME280;48597;49.030;1.822;2024-03-08T04:50:57;99856.25;;;20.31;38.03
62544;BME280;48597;49.030;1.822;2024-03-08T04:53:22;99849.41;;;20.28;37.90
62544;BME280;48597;49.030;1.822;2024-03-08T04:55:49;99843.69;;;20.28;37.98
62544;BME280;48597;49.030;1.822;2024-03-08T04:58:14;99843.38;;;20.26;38.06
62544;BME280;48597;49.030;1.822;2024-03-08T05:00:40;99841.78;;;20.25;38.05
62544;BME280;48597;49.030;1.822;2024-03-08T05:03:05;99838.16;;;20.25;37.91
62544;BME280;48597;49.030;1.822;2024-03-08T05:05:31;99829.56;;;20.25;38.06
62544;BME280;48597;49.030;1.822;2024-03-08T05:07:58;99833.72;;;20.24;38.02
62544;BME280;48597;49.030;1.822;2024-03-08T05:10:24;99824.31;;;20.23;38.12
62544;BME280;48597;49.030;1.822;2024-03-08T05:12:49;99819.06;;;20.22;38.17
62544;BME280;48597;49.030;1.822;2024-03-08T05:15:15;99818.28;;;20.21;38.32
62544;BME280;48597;49.030;1.822;2024-03-08T05:17:41;99823.22;;;20.21;38.12
62544;BME280;48597;49.030;1.822;2024-03-08T05:20:07;99814.31;;;20.19;38.07
62544;BME280;48597;49.030;1.822;2024-03-08T05:22:37;99814.31;;;20.19;38.11
62544;BME280;48597;49.030;1.822;2024-03-08T05:25:03;99816.69;;;20.20;38.26
62544;BME280;48597;49.030;1.822;2024-03-08T05:27:28;99816.38;;;20.18;38.24
62544;BME280;48597;49.030;1.822;2024-03-08T05:29:53;99800.47;;;20.17;38.42
62544;BME280;48597;49.030;1.822;2024-03-08T05:32:19;99801.28;;;20.18;38.20
62544;BME280;48597;49.030;1.822;2024-03-08T05:34:44;99808.25;;;20.17;38.22
62544;BME280;48597;49.030;1.822;2024-03-08T05:37:09;99800.47;;;20.17;38.17
62544;BME280;48597;49.030;1.822;2024-03-08T05:39:36;99800.47;;;20.17;38.11
62544;BME280;48597;49.030;1.822;2024-03-08T05:42:01;99802.53;;;20.17;38.13
62544;BME280;48597;49.030;1.822;2024-03-08T05:44:27;99798.09;;;20.16;38.11
62544;BME280;48597;49.030;1.822;2024-03-08T05:46:54;99803.03;;;20.15;38.15
62544;BME280;48597;49.030;1.822;2024-03-08T05:49:19;99808.75;;;20.15;37.88
62544;BME280;48597;49.030;1.822;2024-03-08T05:51:44;99818.59;;;20.14;38.19
62544;BME280;48597;49.030;1.822;2024-03-08T05:54:11;99812.88;;;20.14;38.20
62544;BME280;48597;49.030;1.822;2024-03-08T05:56:38;99814.13;;;20.13;38.21
62544;BME280;48597;49.030;1.822;2024-03-08T05:59:03;99820.38;;;20.12;38.06
62544;BME280;48597;49.030;1.822;2024-03-08T06:01:29;99820.84;;;20.10;38.15
62544;BME280;48597;49.030;1.822;2024-03-08T06:03:55;99817.19;;;20.10;38.18
62544;BME280;48597;49.030;1.822;2024-03-08T06:06:22;99804.63;;;20.07;38.32
62544;BME280;48597;49.030;1.822;2024-03-08T06:08:48;99810.34;;;20.07;38.15
62544;BME280;48597;49.030;1.822;2024-03-08T06:11:18;99810.81;;;20.06;38.38
62544;BME280;48597;49.030;1.822;2024-03-08T06:13:45;99802.72;;;20.04;38.22
62544;BME280;48597;49.030;1.822;2024-03-08T06:16:10;99801.13;;;20.03;38.19
62544;BME280;48597;49.030;1.822;2024-03-08T06:18:35;99801.13;;;20.03;38.34
62544;BME280;48597;49.030;1.822;2024-03-08T06:21:12;99789.69;;;20.03;38.39
62544;BME280;48597;49.030;1.822;2024-03-08T06:23:38;99785.22;;;20.02;38.31
62544;BME280;48597;49.030;1.822;2024-03-08T06:26:12;99782.38;;;20.02;38.31
62544;BME280;48597;49.030;1.822;2024-03-08T06:28:37;99784.44;;;20.02;38.37
62544;BME280;48597;49.030;1.822;2024-03-08T06:31:03;99786.50;;;20.01;38.43
62544;BME280;48597;49.030;1.822;2024-03-08T06:33:28;99782.38;;;20.02;38.45
62544;BME280;48597;49.030;1.822;2024-03-08T06:35:54;99782.84;;;20.01;38.46
62544;BME280;48597;49.030;1.822;2024-03-08T06:38:22;99774.25;;;20.01;38.40
62544;BME280;48597;49.030;1.822;2024-03-08T06:40:48;99777.13;;;20.01;38.47
62544;BME280;48597;49.030;1.822;2024-03-08T06:43:14;99768.25;;;19.98;38.55
62544;BME280;48597;49.030;1.822;2024-03-08T06:45:42;99769.03;;;19.99;38.59
62544;BME280;48597;49.030;1.822;2024-03-08T06:48:16;99759.97;;;20.01;38.39
62544;BME280;48597;49.030;1.822;2024-03-08T06:50:43;99761.75;;;19.98;38.39
62544;BME280;48597;49.030;1.822;2024-03-08T06:53:09;99764.88;;;20.00;38.41
62544;BME280;48597;49.030;1.822;2024-03-08T06:55:34;99759.66;;;19.98;38.25
62544;BME280;48597;49.030;1.822;2024-03-08T06:58:00;99761.22;;;19.99;38.25
62544;BME280;48597;49.030;1.822;2024-03-08T07:00:26;99762.53;;;19.98;38.22
62544;BME280;48597;49.030;1.822;2024-03-08T07:02:54;99756.03;;;19.98;38.29
62544;BME280;48597;49.030;1.822;2024-03-08T07:05:19;99758.88;;;19.98;38.31
62544;BME280;48597;49.030;1.822;2024-03-08T07:07:45;99760.94;;;19.97;38.26
62544;BME280;48597;49.030;1.822;2024-03-08T07:10:13;99764.28;;;19.96;38.19
62544;BME280;48597;49.030;1.822;2024-03-08T07:12:41;99757.75;;;19.95;37.89
62544;BME280;48597;49.030;1.822;2024-03-08T07:15:06;99753.31;;;19.94;37.84
62544;BME280;48597;49.030;1.822;2024-03-08T07:17:32;99749.66;;;19.94;38.11
62544;BME280;48597;49.030;1.822;2024-03-08T07:20:00;99745.22;;;19.93;38.04
62544;BME280;48597;49.030;1.822;2024-03-08T07:22:31;99752.19;;;19.92;38.17
62544;BME280;48597;49.030;1.822;2024-03-08T07:24:56;99749.34;;;19.92;38.47
62544;BME280;48597;49.030;1.822;2024-03-08T07:27:42;99748.53;;;19.91;38.53
62544;BME280;48597;49.030;1.822;2024-03-08T07:30:07;99753.47;;;19.91;38.55
62544;BME280;48597;49.030;1.822;2024-03-08T07:32:35;99746.47;;;19.92;38.62
62544;BME280;48597;49.030;1.822;2024-03-08T07:35:01;99745.22;;;19.93;38.71
62544;BME280;48597;49.030;1.822;2024-03-08T07:37:30;99743.13;;;19.93;38.49
62544;BME280;48597;49.030;1.822;2024-03-08T07:39:56;99746.00;;;19.93;38.57
62544;BME280;48597;49.030;1.822;2024-03-08T07:42:23;99736.47;;;19.96;38.65
62544;BME280;48597;49.030;1.822;2024-03-08T07:44:48;99744.56;;;19.98;38.80
62544;BME280;48597;49.030;1.822;2024-03-08T07:47:15;99739.16;;;20.00;38.30
62544;BME280;48597;49.030;1.822;2024-03-08T07:49:42;99731.69;;;20.03;38.18
62544;BME280;48597;49.030;1.822;2024-03-08T07:52:09;99739.31;;;20.06;38.27
62544;BME280;48597;49.030;1.822;2024-03-08T07:54:35;99735.66;;;20.05;38.41
62544;BME280;48597;49.030;1.822;2024-03-08T07:57:00;99741.38;;;20.05;38.26
62544;BME280;48597;49.030;1.822;2024-03-08T07:59:28;99740.75;;;20.10;38.58
62544;BME280;48597;49.030;1.822;2024-03-08T08:01:53;99743.72;;;20.16;38.53
62544;BME280;48597;49.030;1.822;2024-03-08T08:04:18;99741.97;;;20.18;38.49
62544;BME280;48597;49.030;1.822;2024-03-08T08:06:49;99732.59;;;20.18;38.55
62544;BME280;48597;49.030;1.822;2024-03-08T08:09:16;99741.66;;;20.16;38.64
62544;BME280;48597;49.030;1.822;2024-03-08T08:11:47;99735.63;;;20.14;38.63
62544;BME280;48597;49.030;1.822;2024-03-08T08:14:12;99731.19;;;20.13;38.55
62544;BME280;48597;49.030;1.822;2024-03-08T08:16:38;99722.13;;;20.15;38.80
62544;BME280;48597;49.030;1.822;2024-03-08T08:19:06;99717.50;;;20.17;38.63
62544;BME280;48597;49.030;1.822;2024-03-08T08:21:35;99714.31;;;20.24;38.71
62544;BME280;48597;49.030;1.822;2024-03-08T08:24:03;99721.47;;;20.38;38.48
62544;BME280;48597;49.030;1.822;2024-03-08T08:26:29;99705.03;;;20.48;38.20
62544;BME280;48597;49.030;1.822;2024-03-08T08:28:55;99713.59;;;20.57;38.11
62544;BME280;48597;49.030;1.822;2024-03-08T08:31:20;99699.41;;;20.62;38.02
62544;BME280;48597;49.030;1.822;2024-03-08T08:33:45;99704.47;;;20.67;38.14
62544;BME280;48597;49.030;1.822;2024-03-08T08:36:13;99695.53;;;20.75;37.89
62544;BME280;48597;49.030;1.822;2024-03-08T08:38:39;99684.19;;;20.80;37.84
62544;BME280;48597;49.030;1.822;2024-03-08T08:41:04;99687.69;;;20.84;37.71
62544;BME280;48597;49.030;1.822;2024-03-08T08:43:30;99680.97;;;20.87;37.59
62544;BME280;48597;49.030;1.822;2024-03-08T08:45:55;99684.94;;;20.90;37.31
62544;BME280;48597;49.030;1.822;2024-03-08T08:48:21;99680.50;;;20.89;37.59
62544;BME280;48597;49.030;1.822;2024-03-08T08:50:47;99674.47;;;20.87;37.67
62544;BME280;48597;49.030;1.822;2024-03-08T08:53:13;99670.19;;;20.82;37.64
62544;BME280;48597;49.030;1.822;2024-03-08T08:55:40;99671.16;;;20.79;37.84
62544;BME280;48597;49.030;1.822;2024-03-08T08:58:05;99677.56;;;20.74;37.94
62544;BME280;48597;49.030;1.822;2024-03-08T09:00:32;99675.66;;;20.71;38.06
62544;BME280;48597;49.030;1.822;2024-03-08T09:02:59;99670.91;;;20.68;38.11
62544;BME280;48597;49.030;1.822;2024-03-08T09:05:25;99676.31;;;20.66;38.00
62544;BME280;48597;49.030;1.822;2024-03-08T09:07:51;99670.31;;;20.64;38.07
62544;BME280;48597;49.030;1.822;2024-03-08T09:10:18;99660.13;;;20.63;38.01
62544;BME280;48597;49.030;1.822;2024-03-08T09:12:44;99656.47;;;20.62;38.08
62544;BME280;48597;49.030;1.822;2024-03-08T09:15:09;99652.31;;;20.63;38.04
62544;BME280;48597;49.030;1.822;2024-03-08T09:17:37;99648.66;;;20.63;38.19
62544;BME280;48597;49.030;1.822;2024-03-08T09:20:06;99644.22;;;20.62;38.25
62544;BME280;48597;49.030;1.822;2024-03-08T09:22:32;99635.63;;;20.62;38.13
62544;BME280;48597;49.030;1.822;2024-03-08T09:24:57;99632.78;;;20.62;38.33
62544;BME280;48597;49.030;1.822;2024-03-08T09:27:22;99628.31;;;20.61;38.26
62544;BME280;48597;49.030;1.822;2024-03-08T09:29:48;99629.91;;;20.62;38.21
62544;BME280;48597;49.030;1.822;2024-03-08T09:32:14;99622.59;;;20.61;38.20
62544;BME280;48597;49.030;1.822;2024-03-08T09:34:39;99624.19;;;20.62;38.13
62544;BME280;48597;49.030;1.822;2024-03-08T09:37:05;99615.59;;;20.62;38.19
62544;BME280;48597;49.030;1.822;2024-03-08T09:39:30;99612.72;;;20.62;38.35
62544;BME280;48597;49.030;1.822;2024-03-08T09:41:56;99608.28;;;20.61;38.29
62544;BME280;48597;49.030;1.822;2024-03-08T09:44:22;99610.66;;;20.62;38.18
62544;BME280;48597;49.030;1.822;2024-03-08T09:46:49;99607.78;;;20.62;38.19
62544;BME280;48597;49.030;1.822;2024-03-08T09:49:17;99599.22;;;20.62;38.35
62544;BME280;48597;49.030;1.822;2024-03-08T09:51:42;99596.34;;;20.62;38.09
62544;BME280;48597;49.030;1.822;2024-03-08T09:54:07;99593.47;;;20.62;38.23
62544;BME280;48597;49.030;1.822;2024-03-08T09:56:35;99589.34;;;20.63;38.18
62544;BME280;48597;49.030;1.822;2024-03-08T09:59:01;99579.97;;;20.63;38.18
62544;BME280;48597;49.030;1.822;2024-03-08T10:01:45;99579.97;;;20.63;38.14
62544;BME280;48597;49.030;1.822;2024-03-08T10:04:11;99568.50;;;20.63;38.11
62544;BME280;48597;49.030;1.822;2024-03-08T10:06:39;99575.03;;;20.63;38.08
62544;BME280;48597;49.030;1.822;2024-03-08T10:09:04;99563.56;;;20.63;38.00
62544;BME280;48597;49.030;1.822;2024-03-08T10:11:32;99563.25;;;20.61;38.10
62544;BME280;48597;49.030;1.822;2024-03-08T10:14:00;99553.88;;;20.61;38.02
62544;BME280;48597;49.030;1.822;2024-03-08T10:16:29;99556.25;;;20.62;38.02
62544;BME280;48597;49.030;1.822;2024-03-08T10:18:56;99553.41;;;20.62;38.09
62544;BME280;48597;49.030;1.822;2024-03-08T10:21:22;99539.09;;;20.62;37.82
62544;BME280;48597;49.030;1.822;2024-03-08T10:23:48;99548.47;;;20.63;37.92
62544;BME280;48597;49.030;1.822;2024-03-08T10:26:15;99545.59;;;20.63;37.96
62544;BME280;48597;49.030;1.822;2024-03-08T10:28:44;99547.19;;;20.64;37.79
62544;BME280;48597;49.030;1.822;2024-03-08T10:31:10;99550.06;;;20.64;38.05
62544;BME280;48597;49.030;1.822;2024-03-08T10:33:36;99542.75;;;20.63;38.09
62544;BME280;48597;49.030;1.822;2024-03-08T10:36:03;99543.53;;;20.63;38.20
62544;BME280;48597;49.030;1.822;2024-03-08T10:38:31;99545.09;;;20.64;37.99
62544;BME280;48597;49.030;1.822;2024-03-08T10:41:01;99537.00;;;20.63;38.13
62544;BME280;48597;49.030;1.822;2024-03-08T10:43:31;99538.59;;;20.64;38.13
62544;BME280;48597;49.030;1.822;2024-03-08T10:46:21;99537.81;;;20.63;38.21
62544;BME280;48597;49.030;1.822;2024-03-08T10:48:52;99537.81;;;20.63;38.32
62544;BME280;48597;49.030;1.822;2024-03-08T10:51:19;99537.81;;;20.63;38.33
62544;BME280;48597;49.030;1.822;2024-03-08T10:53:46;99528.44;;;20.63;38.15
62544;BME280;48597;49.030;1.822;2024-03-08T10:56:13;99525.56;;;20.63;38.31
62544;BME280;48597;49.030;1.822;2024-03-08T10:58:40;99517.75;;;20.63;38.35
62544;BME280;48597;49.030;1.822;2024-03-08T11:01:05;99510.47;;;20.62;38.30
62544;BME280;48597;49.030;1.822;2024-03-08T11:06:10;99512.53;;;20.62;38.42
62544;BME280;48597;49.030;1.822;2024-03-08T11:08:40;99503.94;;;20.62;38.65
62544;BME280;48597;49.030;1.822;2024-03-08T11:11:05;99501.88;;;20.62;38.38
62544;BME280;48597;49.030;1.822;2024-03-08T11:13:39;99499.78;;;20.63;38.42
62544;BME280;48597;49.030;1.822;2024-03-08T11:16:12;99498.53;;;20.64;38.51
62544;BME280;48597;49.030;1.822;2024-03-08T11:19:07;99502.94;;;20.65;38.55
62544;BME280;48597;49.030;1.822;2024-03-08T11:21:57;99497.22;;;20.65;38.37
62544;BME280;48597;49.030;1.822;2024-03-08T11:24:22;99495.13;;;20.65;38.33
62544;BME280;48597;49.030;1.822;2024-03-08T11:26:48;99498.00;;;20.65;38.37
62544;BME280;48597;49.030;1.822;2024-03-08T11:32:09;99478.75;;;20.66;38.39
62544;BME280;48597;49.030;1.822;2024-03-08T11:34:35;99476.69;;;20.66;38.45
62544;BME280;48597;49.030;1.822;2024-03-08T11:37:03;99475.09;;;20.65;38.28
62544;BME280;48597;49.030;1.822;2024-03-08T11:39:29;99470.94;;;20.66;38.37
62544;BME280;48597;49.030;1.822;2024-03-08T11:41:56;99471.75;;;20.67;38.40
62544;BME280;48597;49.030;1.822;2024-03-08T11:44:21;99469.69;;;20.67;38.14
62544;BME280;48597;49.030;1.822;2024-03-08T11:46:46;99467.59;;;20.68;38.11
62544;BME280;48597;49.030;1.822;2024-03-08T11:49:16;99463.47;;;20.69;38.01
62544;BME280;48597;49.030;1.822;2024-03-08T11:51:41;99463.47;;;20.69;37.98
62544;BME280;48597;49.030;1.822;2024-03-08T11:54:12;99454.88;;;20.69;37.85
62544;BME280;48597;49.030;1.822;2024-03-08T11:56:40;99449.16;;;20.69;38.04
62544;BME280;48597;49.030;1.822;2024-03-08T11:59:12;99440.06;;;20.71;38.08
62544;BME280;48597;49.030;1.822;2024-03-08T12:01:40;99439.47;;;20.66;38.15
62544;BME280;48597;49.030;1.822;2024-03-08T12:04:05;99431.19;;;20.68;38.26
62544;BME280;48597;49.030;1.822;2024-03-08T12:06:38;99433.56;;;20.70;38.26
62544;BME280;48597;49.030;1.822;2024-03-08T12:09:07;99427.34;;;20.72;38.18
62544;BME280;48597;49.030;1.822;2024-03-08T12:11:34;99422.41;;;20.72;38.03
62544;BME280;48597;49.030;1.822;2024-03-08T12:14:01;99420.31;;;20.73;38.00
62544;BME280;48597;49.030;1.822;2024-03-08T12:16:27;99421.13;;;20.73;38.07
62544;BME280;48597;49.030;1.822;2024-03-08T12:18:52;99406.81;;;20.73;38.24
62544;BME280;48597;49.030;1.822;2024-03-08T12:21:21;99410.47;;;20.74;38.02
62544;BME280;48597;49.030;1.822;2024-03-08T12:24:05;99409.19;;;20.75;38.07
62544;BME280;48597;49.030;1.822;2024-03-08T12:26:34;99393.28;;;20.74;38.12
62544;BME280;48597;49.030;1.822;2024-03-08T12:29:27;99393.28;;;20.74;37.95
62544;BME280;48597;49.030;1.822;2024-03-08T12:31:58;99392.00;;;20.75;38.06
62544;BME280;48597;49.030;1.822;2024-03-08T12:34:26;99388.34;;;20.74;38.02
62544;BME280;48597;49.030;1.822;2024-03-08T12:36:57;99382.91;;;20.76;38.25
62544;BME280;48597;49.030;1.822;2024-03-08T12:39:23;99374.81;;;20.75;38.25
62544;BME280;48597;49.030;1.822;2024-03-08T12:41:58;99365.75;;;20.76;38.24
62544;BME280;48597;49.030;1.822;2024-03-08T12:44:24;99364.94;;;20.76;38.26
62544;BME280;48597;49.030;1.822;2024-03-08T12:46:51;99358.72;;;20.77;38.30
62544;BME280;48597;49.030;1.822;2024-03-08T12:49:18;99360.81;;;20.77;38.13
62544;BME280;48597;49.030;1.822;2024-03-08T12:51:47;99362.34;;;20.78;38.30
62544;BME280;48597;49.030;1.822;2024-03-08T12:54:13;99362.34;;;20.78;37.96
62544;BME280;48597;49.030;1.822;2024-03-08T12:56:38;99352.22;;;20.77;38.19
62544;BME280;48597;49.030;1.822;2024-03-08T12:59:05;99358.22;;;20.79;38.22
62544;BME280;48597;49.030;1.822;2024-03-08T13:01:31;99348.03;;;20.78;38.18
62544;BME280;48597;49.030;1.822;2024-03-08T13:03:57;99348.03;;;20.78;38.20
62544;BME280;48597;49.030;1.822;2024-03-08T13:06:24;99347.53;;;20.79;38.00